Time;durP1;ratioP1;P1;durP2;ratioP2;P2;SDS_P1;SDS_P2;PMS_P1;PMS_P2;Temp;Humidity;BMP_temperature;BMP_pressure;BME280_temperature;BME280_humidity;BME280_pressure;Samples;Min_cycle;Max_cycle;Signal;HPM_P1;HPM_P2
2024/01/06 00:00:22;;;;;;;25.90;21.77;;;;;;;4.57;84.26;96999.53;4935480;29;20042;-71
2024/01/06 00:02:48;;;;;;;24.10;18.17;;;;;;;4.61;83.75;97006.00;4938678;28;20030;-71
2024/01/06 00:05:14;;;;;;;24.90;20.33;;;;;;;4.64;83.57;97010.88;4959079;28;20439;-73
2024/01/06 00:07:39;;;;;;;21.52;19.13;;;;;;;4.66;84.08;97022.09;4924413;29;20035;-71
2024/01/06 00:10:05;;;;;;;25.27;20.35;;;;;;;4.49;84.26;96998.03;4949821;28;20026;-71
2024/01/06 00:12:31;;;;;;;15.95;14.35;;;;;;;4.62;84.29;97018.28;4937120;29;20035;-71
2024/01/06 00:14:56;;;;;;;16.00;13.40;;;;;;;4.54;84.44;97010.66;4924156;29;20451;-71
2024/01/06 00:17:22;;;;;;;14.38;12.88;;;;;;;4.60;84.23;97009.69;4959272;28;20035;-71
2024/01/06 00:19:50;;;;;;;17.98;15.55;;;;;;;4.62;84.78;97012.97;4950706;29;20132;-72
2024/01/06 00:22:16;;;;;;;25.27;22.63;;;;;;;4.60;84.57;97015.03;4957276;28;20039;-71
2024/01/06 00:24:41;;;;;;;20.85;17.63;;;;;;;4.57;84.45;97011.00;4955809;28;20127;-71
2024/01/06 00:27:06;;;;;;;17.98;16.02;;;;;;;4.53;84.32;97007.16;4953000;28;20142;-72
2024/01/06 00:29:32;;;;;;;17.98;15.73;;;;;;;4.51;84.67;97013.78;4954198;29;20026;-73
2024/01/06 00:31:57;;;;;;;19.92;16.88;;;;;;;4.54;84.44;97007.97;4936715;29;20043;-73
2024/01/06 00:34:23;;;;;;;19.42;16.13;;;;;;;4.51;84.22;97008.44;4920857;29;20023;-73
2024/01/06 00:36:48;;;;;;;18.08;14.43;;;;;;;4.50;84.89;97014.84;4936529;29;20035;-73
2024/01/06 00:39:13;;;;;;;15.73;14.02;;;;;;;4.44;84.88;97005.91;4940332;28;20372;-72
2024/01/06 00:41:39;;;;;;;16.58;14.27;;;;;;;4.42;84.27;97012.50;4946560;28;20039;-72
2024/01/06 00:44:04;;;;;;;17.00;14.25;;;;;;;4.42;84.21;97020.50;4936466;29;20067;-73
2024/01/06 00:46:29;;;;;;;17.77;13.57;;;;;;;4.39;84.16;97026.34;4936562;29;20039;-73
2024/01/06 00:48:55;;;;;;;16.20;12.45;;;;;;;4.36;83.89;97026.78;4953638;29;20035;-73
2024/01/06 00:51:20;;;;;;;14.50;12.10;;;;;;;4.35;84.22;97041.16;4952076;28;20082;-73
2024/01/06 00:53:47;;;;;;;15.82;12.43;;;;;;;4.28;84.22;97032.47;4951024;29;20503;-72
2024/01/06 00:56:12;;;;;;;18.15;12.77;;;;;;;4.26;84.27;97035.38;4922621;28;20039;-72
2024/01/06 00:58:37;;;;;;;16.35;12.50;;;;;;;4.11;84.23;97011.84;4958311;28;20030;-71
2024/01/06 01:01:03;;;;;;;17.23;11.32;;;;;;;4.27;84.82;97044.19;4932581;28;20136;-71
2024/01/06 01:03:28;;;;;;;17.05;13.27;;;;;;;4.23;84.60;97043.81;4940328;29;20050;-71
2024/01/06 01:05:54;;;;;;;18.77;13.98;;;;;;;4.15;85.11;97046.84;4956230;28;20043;-71
2024/01/06 01:08:19;;;;;;;15.63;12.73;;;;;;;4.01;84.02;97024.94;4953908;28;20031;-71
2024/01/06 01:10:45;;;;;;;15.40;12.00;;;;;;;4.12;84.92;97048.13;4942902;28;20070;-71
2024/01/06 01:13:10;;;;;;;17.60;13.98;;;;;;;4.14;84.42;97058.53;4956501;28;20027;-71
2024/01/06 01:15:36;;;;;;;17.88;13.50;;;;;;;4.10;84.63;97055.53;4935714;29;20039;-71
2024/01/06 01:18:01;;;;;;;14.63;11.82;;;;;;;4.09;84.81;97051.25;4932708;29;20527;-71
2024/01/06 01:20:26;;;;;;;12.65;10.68;;;;;;;4.12;84.48;97058.78;4948636;28;20035;-71
2024/01/06 01:22:52;;;;;;;14.98;10.43;;;;;;;4.12;84.31;97052.63;4950198;28;20436;-70
2024/01/06 01:25:17;;;;;;;13.20;11.13;;;;;;;4.13;84.93;97059.59;4951453;28;20028;-71
2024/01/06 01:27:42;;;;;;;15.82;12.65;;;;;;;4.17;84.58;97064.22;4952396;29;20106;-72
2024/01/06 01:30:08;;;;;;;14.27;12.18;;;;;;;4.04;84.94;97055.63;4924882;28;20035;-71
2024/01/06 01:32:33;;;;;;;14.82;12.40;;;;;;;4.10;85.68;97063.53;4965720;28;20582;-71
2024/01/06 01:34:59;;;;;;;16.50;11.05;;;;;;;4.00;85.13;97054.47;4961036;28;20035;-71
2024/01/06 01:37:24;;;;;;;16.35;11.18;;;;;;;4.08;85.23;97070.91;4946588;28;20399;-70
2024/01/06 01:39:50;;;;;;;14.20;11.75;;;;;;;4.09;85.69;97072.56;4935895;29;20090;-71
2024/01/06 01:42:15;;;;;;;14.48;11.00;;;;;;;4.12;85.72;97074.75;4947001;28;20039;-71
2024/01/06 01:44:40;;;;;;;12.93;10.27;;;;;;;4.14;85.84;97072.69;4944263;28;20031;-71
2024/01/06 01:47:06;;;;;;;16.77;11.73;;;;;;;4.11;85.65;97061.66;4951658;28;20818;-72
2024/01/06 01:49:32;;;;;;;18.20;11.45;;;;;;;4.05;85.29;97063.41;4939703;29;20098;-72
2024/01/06 01:51:58;;;;;;;17.95;12.32;;;;;;;4.03;86.62;97062.84;4935956;29;20110;-72
2024/01/06 01:54:23;;;;;;;14.85;11.70;;;;;;;4.08;86.41;97078.91;4935814;29;20123;-73
2024/01/06 01:56:48;;;;;;;15.32;10.25;;;;;;;4.02;86.15;97063.03;4952922;29;20551;-72
2024/01/06 01:59:17;;;;;;;13.60;11.07;;;;;;;4.00;86.50;97047.31;4946780;29;20038;-73
2024/01/06 02:01:43;;;;;;;12.75;9.80;;;;;;;4.17;86.92;97074.88;4948650;29;20107;-72
2024/01/06 02:04:08;;;;;;;13.57;10.35;;;;;;;4.18;86.58;97068.50;4955439;28;20134;-72
2024/01/06 02:06:34;;;;;;;18.58;12.18;;;;;;;4.19;86.71;97064.81;4939591;29;20059;-72
2024/01/06 02:09:00;;;;;;;13.35;10.48;;;;;;;4.30;86.61;97081.00;4939429;29;20526;-72
2024/01/06 02:11:25;;;;;;;14.98;12.23;;;;;;;4.23;86.84;97065.13;4942553;28;20031;-73
2024/01/06 02:13:51;;;;;;;18.85;12.57;;;;;;;4.29;87.04;97069.56;4939446;29;20172;-73
2024/01/06 02:16:16;;;;;;;17.88;13.60;;;;;;;4.40;87.27;97086.56;4951701;29;20082;-73
2024/01/06 02:18:42;;;;;;;16.25;12.38;;;;;;;4.40;87.58;97092.72;4945051;28;20042;-70
2024/01/06 02:21:07;;;;;;;19.95;15.52;;;;;;;4.37;87.42;97082.50;4958110;28;20074;-70
2024/01/06 02:23:35;;;;;;;15.10;13.50;;;;;;;4.40;87.58;97087.38;4953732;28;20040;-70
2024/01/06 02:26:00;;;;;;;14.48;12.82;;;;;;;4.44;87.60;97087.72;4934034;29;20031;-71
2024/01/06 02:28:25;;;;;;;14.80;11.80;;;;;;;4.44;87.97;97093.06;4943101;29;20046;-71
2024/01/06 02:30:51;;;;;;;19.95;13.77;;;;;;;4.38;87.42;97076.16;4938744;29;20034;-71
2024/01/06 02:33:19;;;;;;;16.85;13.02;;;;;;;4.46;87.22;97090.97;4953747;28;20066;-72
2024/01/06 02:35:44;;;;;;;15.23;12.60;;;;;;;4.48;87.58;97094.22;4946958;28;20082;-72
2024/01/06 02:38:10;;;;;;;20.30;13.95;;;;;;;4.49;87.48;97086.00;4938894;28;20034;-72
2024/01/06 02:40:35;;;;;;;16.13;13.18;;;;;;;4.50;87.50;97086.81;4933434;28;20058;-71
2024/01/06 02:43:01;;;;;;;17.92;12.90;;;;;;;4.52;87.28;97090.03;4960485;28;20035;-71
2024/01/06 02:45:26;;;;;;;18.27;14.60;;;;;;;4.46;87.34;97080.28;4924878;28;20023;-71
2024/01/06 02:47:51;;;;;;;18.40;13.30;;;;;;;4.46;87.42;97080.28;4944353;28;20035;-71
2024/01/06 02:50:17;;;;;;;16.40;14.05;;;;;;;4.51;87.50;97083.09;4954443;28;20109;-71
2024/01/06 02:52:43;;;;;;;17.40;14.90;;;;;;;4.41;87.54;97072.22;4958410;28;20543;-71
2024/01/06 02:55:08;;;;;;;19.90;15.45;;;;;;;4.52;87.21;97096.19;4937988;28;20045;-71
2024/01/06 02:57:35;;;;;;;16.73;14.90;;;;;;;4.50;87.58;97089.47;4962946;28;20490;-71
2024/01/06 03:00:01;;;;;;;16.50;14.48;;;;;;;4.41;87.69;97075.66;4938589;29;20032;-70
2024/01/06 03:02:26;;;;;;;17.77;13.75;;;;;;;4.51;87.82;97099.06;4944258;28;20050;-71
2024/01/06 03:04:52;;;;;;;20.27;16.77;;;;;;;4.49;87.51;97101.16;4957244;28;20038;-71
2024/01/06 03:07:17;;;;;;;20.77;15.65;;;;;;;4.36;87.16;97080.09;4961359;28;20046;-71
2024/01/06 03:09:43;;;;;;;18.42;14.65;;;;;;;4.46;87.24;97098.94;4919658;29;20026;-71
2024/01/06 03:12:08;;;;;;;19.45;13.77;;;;;;;4.46;87.42;97099.78;4955262;28;20066;-72
2024/01/06 03:14:35;;;;;;;18.25;14.82;;;;;;;4.46;86.91;97096.28;4919417;29;20015;-72
2024/01/06 03:17:00;;;;;;;17.67;15.38;;;;;;;4.35;87.08;97089.94;4923270;29;20040;-73
2024/01/06 03:19:27;;;;;;;19.20;15.57;;;;;;;4.44;87.49;97101.03;4935197;29;20038;-73
2024/01/06 03:21:52;;;;;;;18.00;15.63;;;;;;;4.31;86.79;97087.97;4952007;29;20066;-72
2024/01/06 03:24:18;;;;;;;21.75;16.90;;;;;;;4.34;87.50;97098.97;4934871;29;20063;-72
2024/01/06 03:26:43;;;;;;;19.40;15.88;;;;;;;4.32;87.28;97090.38;4949725;29;20070;-72
2024/01/06 03:29:09;;;;;;;21.20;14.90;;;;;;;4.33;87.02;97099.19;4942657;29;20063;-72
2024/01/06 03:31:34;;;;;;;17.10;14.02;;;;;;;4.34;87.38;97098.16;4951537;28;20510;-72
2024/01/06 03:34:00;;;;;;;18.27;15.55;;;;;;;4.35;87.24;97094.44;4944207;29;20094;-71
2024/01/06 03:36:25;;;;;;;18.23;15.35;;;;;;;4.33;87.28;97091.22;4945087;28;20495;-72
2024/01/06 03:38:50;;;;;;;22.15;18.23;;;;;;;4.34;87.37;97098.97;4943562;29;20043;-72
2024/01/06 03:41:16;;;;;;;25.58;18.08;;;;;;;4.38;87.33;97110.81;4941459;28;20105;-72
2024/01/06 03:43:41;;;;;;;24.00;19.30;;;;;;;4.29;87.18;97101.53;4958227;28;20031;-71
2024/01/06 03:46:06;;;;;;;21.13;17.67;;;;;;;4.36;87.38;97117.41;4954445;28;20122;-72
2024/01/06 03:48:32;;;;;;;17.45;14.93;;;;;;;4.34;87.19;97119.50;4943527;28;20022;-72
2024/01/06 03:50:59;;;;;;;21.50;16.27;;;;;;;4.26;87.79;97095.84;4938289;29;20513;-72
2024/01/06 03:53:24;;;;;;;18.40;16.10;;;;;;;4.27;86.79;97102.81;4937162;28;20026;-72
2024/01/06 03:55:50;;;;;;;16.88;15.00;;;;;;;4.36;86.66;97120.88;4936778;29;20039;-72
2024/01/06 03:58:15;;;;;;;21.08;14.40;;;;;;;4.35;86.83;97118.44;4938721;28;20023;-72
2024/01/06 04:00:40;;;;;;;18.48;14.90;;;;;;;4.34;87.12;97114.94;4946698;29;20086;-72
2024/01/06 04:03:06;;;;;;;16.88;14.40;;;;;;;4.30;86.95;97107.66;4942438;29;20031;-71
2024/01/06 04:05:32;;;;;;;18.50;16.10;;;;;;;4.25;86.51;97099.56;4940539;28;20039;-72
2024/01/06 04:07:57;;;;;;;18.45;16.10;;;;;;;4.33;86.89;97113.34;4953715;28;20028;-72
2024/01/06 04:10:23;;;;;;;18.92;16.20;;;;;;;4.29;86.90;97116.69;4952857;28;20035;-73
2024/01/06 04:12:48;;;;;;;17.92;15.23;;;;;;;4.23;86.29;97107.75;4938790;29;20023;-73
2024/01/06 04:15:13;;;;;;;23.58;20.98;;;;;;;4.19;86.70;97112.75;4957380;28;20039;-73
2024/01/06 04:17:39;;;;;;;28.67;21.08;;;;;;;4.04;86.41;97099.06;4936923;29;20079;-73
2024/01/06 04:20:05;;;;;;;15.93;13.82;;;;;;;4.05;86.86;97108.69;4929942;29;20510;-72
2024/01/06 04:22:30;;;;;;;25.17;17.83;;;;;;;4.15;87.34;97124.09;4936125;28;20037;-72
2024/01/06 04:24:56;;;;;;;44.70;32.45;;;;;;;3.98;86.77;97102.66;4955521;28;20403;-72
2024/01/06 04:27:21;;;;;;;23.50;18.70;;;;;;;4.02;87.01;97125.13;4958693;28;20031;-73
2024/01/06 04:29:46;;;;;;;20.92;15.82;;;;;;;4.08;87.36;97136.72;4953350;28;20043;-72
2024/01/06 04:32:12;;;;;;;21.08;17.42;;;;;;;4.03;87.14;97129.44;4952531;28;20030;-71
2024/01/06 04:34:37;;;;;;;26.70;21.70;;;;;;;4.03;87.13;97137.41;4951429;28;20031;-71
2024/01/06 04:37:02;;;;;;;23.25;18.75;;;;;;;3.94;87.12;97129.97;4935941;29;20023;-71
2024/01/06 04:39:28;;;;;;;22.95;19.73;;;;;;;3.88;86.79;97126.38;4934905;28;20043;-71
2024/01/06 04:41:53;;;;;;;21.00;17.00;;;;;;;3.96;87.20;97127.91;4955658;28;20065;-73
2024/01/06 04:44:20;;;;;;;24.75;18.52;;;;;;;3.96;86.98;97119.91;4940179;28;20539;-72
2024/01/06 04:46:45;;;;;;;20.73;18.10;;;;;;;3.96;86.83;97127.91;4958405;28;20114;-73
2024/01/06 04:49:11;;;;;;;23.70;19.48;;;;;;;3.92;86.22;97132.84;4939756;29;20203;-72
2024/01/06 04:51:36;;;;;;;28.83;22.17;;;;;;;3.91;86.19;97130.44;4930577;28;20030;-71
2024/01/06 04:54:01;;;;;;;21.65;18.50;;;;;;;3.82;86.60;97116.63;4951664;28;20038;-70
2024/01/06 04:56:27;;;;;;;23.95;19.90;;;;;;;3.81;86.77;97130.16;4918813;28;20447;-70
2024/01/06 04:58:52;;;;;;;25.92;19.38;;;;;;;3.86;87.12;97155.09;4952712;28;20513;-71
2024/01/06 05:01:18;;;;;;;24.63;19.42;;;;;;;3.84;86.75;97154.50;4937024;28;20024;-71
2024/01/06 05:03:43;;;;;;;23.20;18.08;;;;;;;3.82;87.07;97148.59;4956180;28;20062;-71
2024/01/06 05:06:08;;;;;;;17.65;15.73;;;;;;;3.70;86.58;97123.78;4951751;28;20031;-71
2024/01/06 05:08:36;;;;;;;23.27;17.77;;;;;;;3.74;86.71;97135.59;4952188;28;20566;-71
2024/01/06 05:11:01;;;;;;;22.73;17.65;;;;;;;3.81;86.50;97141.63;4956305;28;20039;-71
2024/01/06 05:13:27;;;;;;;22.52;17.63;;;;;;;3.77;86.40;97140.47;4937509;28;20039;-71
2024/01/06 05:15:52;;;;;;;26.42;19.15;;;;;;;3.66;86.62;97125.28;4950119;28;20503;-71
2024/01/06 05:18:18;;;;;;;21.65;19.15;;;;;;;3.73;86.45;97136.66;4947773;28;20043;-72
2024/01/06 05:20:43;;;;;;;22.52;19.90;;;;;;;3.71;86.55;97141.34;4947865;28;20079;-71
2024/01/06 05:23:08;;;;;;;22.88;20.50;;;;;;;3.56;86.32;97122.34;4951652;28;20086;-71
2024/01/06 05:25:34;;;;;;;21.25;17.30;;;;;;;3.66;86.55;97143.91;4952498;28;20410;-71
2024/01/06 05:27:59;;;;;;;18.65;16.75;;;;;;;3.70;86.58;97152.25;4948806;28;20044;-71
2024/01/06 05:30:24;;;;;;;23.40;19.65;;;;;;;3.67;86.80;97156.16;4952069;28;20027;-71
2024/01/06 05:32:50;;;;;;;23.85;20.27;;;;;;;3.64;86.63;97161.16;4950866;28;20491;-71
2024/01/06 05:35:16;;;;;;;19.40;16.80;;;;;;;3.40;86.80;97122.97;4953166;28;20031;-71
2024/01/06 05:37:42;;;;;;;22.83;16.90;;;;;;;3.61;86.71;97162.41;4948458;28;20027;-71
2024/01/06 05:40:08;;;;;;;17.63;15.77;;;;;;;3.58;86.60;97165.50;4936195;29;20384;-71
2024/01/06 05:42:33;;;;;;;21.38;15.48;;;;;;;3.54;86.52;97166.19;4952721;28;20182;-71
2024/01/06 05:44:58;;;;;;;18.98;17.02;;;;;;;3.34;86.54;97150.47;4951413;28;20081;-72
2024/01/06 05:47:24;;;;;;;19.00;16.30;;;;;;;3.43;86.83;97175.75;4929476;29;20058;-72
2024/01/06 05:49:49;;;;;;;19.27;16.17;;;;;;;3.25;86.18;97152.63;4938615;29;20027;-73
2024/01/06 05:52:15;;;;;;;20.80;14.50;;;;;;;3.32;86.03;97169.31;4935843;29;20408;-72
2024/01/06 05:54:42;;;;;;;18.17;16.15;;;;;;;3.41;86.63;97181.28;4918592;28;20019;-72
2024/01/06 05:57:07;;;;;;;18.65;14.75;;;;;;;3.27;86.33;97163.03;4934524;29;20043;-73
2024/01/06 05:59:33;;;;;;;17.88;15.35;;;;;;;3.28;86.37;97177.97;4932744;28;20038;-73
2024/01/06 06:01:58;;;;;;;20.65;17.52;;;;;;;3.31;86.33;97194.28;4927629;29;20299;-73
2024/01/06 06:04:24;;;;;;;20.52;15.52;;;;;;;3.14;86.12;97179.16;4934833;28;20023;-72
2024/01/06 06:06:49;;;;;;;18.08;15.57;;;;;;;3.26;85.83;97201.34;4952231;28;20074;-72
2024/01/06 06:09:15;;;;;;;21.00;15.30;;;;;;;3.25;86.14;97207.69;4933513;29;20396;-72
2024/01/06 06:11:41;;;;;;;19.23;16.40;;;;;;;3.26;86.35;97206.66;4919295;28;20499;-73
2024/01/06 06:14:06;;;;;;;18.10;14.63;;;;;;;3.05;85.86;97194.63;4932258;29;20043;-73
2024/01/06 06:16:31;;;;;;;20.20;16.48;;;;;;;3.18;85.93;97214.91;4931143;28;20046;-72
2024/01/06 06:18:58;;;;;;;18.48;15.27;;;;;;;3.09;86.08;97213.59;4939846;29;20023;-72
2024/01/06 06:21:23;;;;;;;20.33;16.98;;;;;;;2.93;85.67;97190.25;4932758;28;20039;-72
2024/01/06 06:23:49;;;;;;;21.48;17.20;;;;;;;2.93;85.97;97208.84;4937686;28;20034;-72
2024/01/06 06:26:14;;;;;;;22.70;18.77;;;;;;;3.05;85.62;97228.38;4944884;28;20043;-72
2024/01/06 06:28:39;;;;;;;21.40;19.02;;;;;;;2.94;85.51;97213.16;4954770;28;20027;-72
2024/01/06 06:31:05;;;;;;;43.22;28.38;;;;;;;2.83;86.06;97222.66;4932213;29;20134;-72
2024/01/06 06:33:30;;;;;;;32.35;24.08;;;;;;;2.88;86.17;97235.28;4948186;28;20023;-72
2024/01/06 06:35:56;;;;;;;34.00;24.20;;;;;;;2.83;85.85;97235.13;4931586;29;20047;-72
2024/01/06 06:38:21;;;;;;;28.80;20.60;;;;;;;2.80;86.46;97237.19;4952997;29;20106;-72
2024/01/06 06:40:47;;;;;;;17.95;16.05;;;;;;;2.75;86.01;97239.69;4941549;28;20113;-72
2024/01/06 06:43:13;;;;;;;22.88;18.13;;;;;;;2.74;86.72;97243.41;4957094;28;20026;-72
2024/01/06 06:45:38;;;;;;;22.88;17.20;;;;;;;2.62;85.95;97231.84;4935262;28;20039;-70
2024/01/06 06:48:04;;;;;;;26.75;23.10;;;;;;;2.72;86.61;97253.44;4956601;28;20027;-70
2024/01/06 06:50:30;;;;;;;22.45;19.20;;;;;;;2.72;86.17;97257.94;4940660;28;20043;-70
2024/01/06 06:52:55;;;;;;;25.17;19.30;;;;;;;2.74;86.17;97259.34;4931295;28;20442;-70
2024/01/06 06:55:20;;;;;;;24.83;20.50;;;;;;;2.68;86.12;97260.19;4937906;28;20043;-71
2024/01/06 06:57:46;;;;;;;23.88;17.65;;;;;;;2.74;86.62;97277.97;4930330;28;20065;-71
2024/01/06 07:00:11;;;;;;;26.63;21.83;;;;;;;2.78;86.75;97276.47;4935067;29;20380;-71
2024/01/06 07:02:37;;;;;;;29.13;21.60;;;;;;;2.79;86.38;97280.78;4938975;28;20115;-71
2024/01/06 07:05:05;;;;;;;27.63;22.23;;;;;;;2.82;86.42;97278.72;4928299;29;20136;-71
2024/01/06 07:07:31;;;;;;;25.85;21.05;;;;;;;2.85;87.07;97288.94;4938884;29;20479;-72
2024/01/06 07:09:56;;;;;;;22.40;19.65;;;;;;;2.83;86.46;97281.16;4943354;29;20046;-71
2024/01/06 07:12:21;;;;;;;26.13;20.00;;;;;;;2.84;86.98;97281.97;4954608;28;20033;-71
2024/01/06 07:14:47;;;;;;;31.23;24.15;;;;;;;2.87;87.18;97292.19;4949756;28;20061;-71
2024/01/06 07:17:12;;;;;;;27.80;20.45;;;;;;;2.90;86.57;97292.53;4942838;29;20423;-71
2024/01/06 07:19:38;;;;;;;28.85;23.20;;;;;;;2.81;86.97;97283.22;4956200;28;20476;-71
2024/01/06 07:22:05;;;;;;;27.35;21.88;;;;;;;2.93;86.85;97301.94;4938158;29;20050;-71
2024/01/06 07:24:30;;;;;;;32.85;29.65;;;;;;;2.82;87.63;97289.34;4942300;28;20055;-71
2024/01/06 07:26:55;;;;;;;23.13;20.88;;;;;;;2.85;87.05;97304.88;4950613;28;20035;-72
2024/01/06 07:29:21;;;;;;;22.17;19.75;;;;;;;2.72;87.42;97305.78;4952676;29;20642;-72
2024/01/06 07:31:47;;;;;;;21.15;18.95;;;;;;;2.68;87.49;97302.72;4958802;28;20494;-72
2024/01/06 07:34:12;;;;;;;24.42;21.92;;;;;;;2.80;87.08;97313.50;4957082;28;20065;-72
2024/01/06 07:36:39;;;;;;;17.77;15.07;;;;;;;2.62;87.59;97300.94;4943800;28;20059;-72
2024/01/06 07:39:05;;;;;;;17.80;15.85;;;;;;;2.47;87.21;97284.53;4936378;29;20035;-72
2024/01/06 07:41:31;;;;;;;19.48;15.43;;;;;;;2.66;87.22;97299.47;4957076;29;20074;-72
2024/01/06 07:43:57;;;;;;;19.40;16.15;;;;;;;2.61;87.80;97294.00;4918812;29;20138;-72
2024/01/06 07:46:23;;;;;;;20.17;16.73;;;;;;;2.84;87.17;97324.50;4940933;29;20054;-72
2024/01/06 07:48:48;;;;;;;26.58;22.58;;;;;;;2.89;87.79;97327.31;4953574;29;20066;-72
2024/01/06 07:51:14;;;;;;;26.40;23.67;;;;;;;2.91;87.48;97330.59;4946281;29;20156;-72
2024/01/06 07:53:39;;;;;;;20.75;17.90;;;;;;;2.80;87.51;97318.81;4914870;29;20115;-72
2024/01/06 07:56:05;;;;;;;21.30;18.98;;;;;;;3.03;87.23;97339.47;4940929;29;20467;-72
2024/01/06 07:58:31;;;;;;;19.60;17.60;;;;;;;2.92;87.09;97310.94;4957782;28;20035;-73
2024/01/06 08:00:57;;;;;;;19.67;15.57;;;;;;;3.02;86.86;97317.38;4952638;28;20031;-72
2024/01/06 08:03:23;;;;;;;27.88;23.67;;;;;;;3.04;86.97;97314.50;4954150;28;20143;-72
2024/01/06 08:05:49;;;;;;;20.80;18.25;;;;;;;3.18;87.22;97332.78;4957601;28;20081;-72
2024/01/06 08:08:16;;;;;;;24.40;21.80;;;;;;;3.15;87.08;97327.09;4930589;29;20066;-72
2024/01/06 08:10:42;;;;;;;23.13;18.85;;;;;;;3.28;87.12;97332.28;4940772;29;20051;-72
2024/01/06 08:13:07;;;;;;;62.05;45.05;;;;;;;3.27;87.01;97326.16;4953087;28;20067;-72
2024/01/06 08:15:33;;;;;;;46.92;35.60;;;;;;;3.32;87.14;97333.47;4947473;29;20023;-74
2024/01/06 08:17:58;;;;;;;30.60;25.33;;;;;;;3.32;87.07;97344.13;4925436;29;20047;-72
2024/01/06 08:20:23;;;;;;;24.58;18.58;;;;;;;3.25;87.50;97338.03;4937013;29;20114;-72
2024/01/06 08:22:49;;;;;;;24.42;21.30;;;;;;;3.37;87.39;97349.59;4948425;29;20057;-72
2024/01/06 08:25:17;;;;;;;31.42;22.20;;;;;;;3.41;86.77;97348.94;4929001;29;20027;-70
2024/01/06 08:27:43;;;;;;;31.30;22.60;;;;;;;3.42;86.96;97344.44;4918640;29;20046;-72
2024/01/06 08:30:09;;;;;;;33.88;24.80;;;;;;;3.44;87.56;97348.50;4937357;29;20078;-72
2024/01/06 08:32:34;;;;;;;30.92;23.98;;;;;;;3.56;87.01;97350.44;4931592;29;20039;-72
2024/01/06 08:34:59;;;;;;;24.85;21.38;;;;;;;3.61;86.97;97351.41;4953371;28;20016;-72
2024/01/06 08:37:25;;;;;;;29.02;23.00;;;;;;;3.65;87.02;97349.91;4936611;29;20039;-72
2024/01/06 08:39:50;;;;;;;24.80;20.02;;;;;;;3.60;86.88;97336.47;4953653;29;20628;-72
2024/01/06 08:42:16;;;;;;;35.55;27.80;;;;;;;3.76;87.13;97351.84;4952477;29;20050;-72
2024/01/06 08:44:43;;;;;;;37.20;31.63;;;;;;;3.76;87.11;97359.81;4954256;28;20031;-72
2024/01/06 08:47:09;;;;;;;41.35;32.92;;;;;;;3.69;86.92;97361.75;4937203;29;20054;-72
2024/01/06 08:49:34;;;;;;;34.97;29.50;;;;;;;3.67;87.16;97368.31;4936127;29;20035;-71
2024/01/06 08:52:00;;;;;;;39.03;29.52;;;;;;;3.67;86.45;97369.16;4943140;29;20062;-72
2024/01/06 08:54:25;;;;;;;34.85;26.92;;;;;;;3.58;86.78;97359.81;4947268;28;20029;-72
2024/01/06 08:56:50;;;;;;;26.88;24.00;;;;;;;3.77;86.42;97374.78;4952193;29;20070;-72
2024/01/06 08:59:16;;;;;;;34.65;30.55;;;;;;;3.92;86.49;97374.41;4951765;29;20059;-72
2024/01/06 09:01:42;;;;;;;34.45;29.45;;;;;;;4.03;86.40;97363.84;4937558;28;20031;-72
2024/01/06 09:04:07;;;;;;;41.30;36.92;;;;;;;4.13;86.48;97366.75;4936192;29;20566;-72
2024/01/06 09:06:32;;;;;;;38.33;32.20;;;;;;;4.20;86.14;97364.81;4945640;29;20092;-72
2024/01/06 09:08:58;;;;;;;48.95;39.03;;;;;;;4.30;86.47;97374.13;4936197;29;20102;-72
2024/01/06 09:11:24;;;;;;;65.60;47.97;;;;;;;4.11;86.67;97349.38;4916993;29;20035;-72
2024/01/06 09:13:52;;;;;;;33.10;27.33;;;;;;;4.20;86.39;97370.16;4949406;29;20110;-72
2024/01/06 09:16:18;;;;;;;35.75;28.90;;;;;;;4.30;86.81;97382.94;4960810;28;20071;-72
2024/01/06 09:18:43;;;;;;;29.63;25.08;;;;;;;4.36;86.92;97389.25;4947176;29;20142;-72
2024/01/06 09:21:09;;;;;;;36.35;29.10;;;;;;;4.48;87.30;97388.25;4951908;29;20492;-72
2024/01/06 09:23:34;;;;;;;33.05;28.15;;;;;;;4.52;86.77;97383.28;4948519;28;20027;-72
2024/01/06 09:26:00;;;;;;;34.50;28.98;;;;;;;4.60;86.86;97369.63;4941077;29;20035;-72
2024/01/06 09:28:25;;;;;;;34.78;30.58;;;;;;;4.82;86.70;97394.75;4930465;29;20033;-72
2024/01/06 09:30:52;;;;;;;40.00;32.40;;;;;;;4.80;87.00;97380.84;4926319;29;20043;-71
2024/01/06 09:33:17;;;;;;;38.45;31.30;;;;;;;5.00;86.96;97397.34;4929204;29;20046;-72
2024/01/06 09:35:44;;;;;;;35.50;26.70;;;;;;;4.97;86.84;97379.13;4951594;29;20381;-71
2024/01/06 09:38:09;;;;;;;29.75;23.92;;;;;;;4.99;87.08;97376.25;4934644;29;20472;-72
2024/01/06 09:40:35;;;;;;;30.80;25.10;;;;;;;5.07;87.39;97376.72;4935793;29;20043;-72
2024/01/06 09:43:01;;;;;;;28.13;22.73;;;;;;;5.25;87.77;97400.63;4935747;29;20034;-72
2024/01/06 09:45:28;;;;;;;27.35;24.13;;;;;;;5.25;87.44;97384.63;4935642;29;20074;-72
2024/01/06 09:47:54;;;;;;;30.73;24.67;;;;;;;5.42;87.53;97406.94;4935504;29;20027;-72
2024/01/06 09:50:21;;;;;;;28.23;24.30;;;;;;;5.41;87.24;97386.59;4951693;29;20042;-72
2024/01/06 09:52:55;;;;;;;29.17;25.20;;;;;;;5.56;87.47;97403.00;4932513;28;20392;-72
2024/01/06 09:55:26;;;;;;;33.17;25.25;;;;;;;5.58;87.02;97416.09;4931384;29;20175;-72
2024/01/06 09:57:52;;;;;;;27.83;22.35;;;;;;;5.63;86.85;97408.22;4917812;29;20044;-72
2024/01/06 10:00:19;;;;;;;26.98;24.17;;;;;;;5.65;86.96;97394.66;4926722;29;20035;-72
2024/01/06 10:02:46;;;;;;;28.45;22.02;;;;;;;5.72;87.42;97406.81;4919598;29;20043;-72
2024/01/06 10:05:12;;;;;;;29.33;22.42;;;;;;;5.65;87.37;97389.31;4935353;29;20023;-72
2024/01/06 10:07:38;;;;;;;29.02;22.15;;;;;;;5.59;87.79;97381.19;4928087;29;20075;-72
2024/01/06 10:10:03;;;;;;;28.00;24.67;;;;;;;5.82;87.70;97406.25;4948322;29;20035;-72
2024/01/06 10:12:29;;;;;;;23.25;20.75;;;;;;;5.87;87.61;97398.38;4951344;29;20483;-73
2024/01/06 10:14:54;;;;;;;21.42;18.42;;;;;;;5.86;87.13;97388.75;4948841;29;20063;-72
2024/01/06 10:17:19;;;;;;;19.77;17.38;;;;;;;6.01;87.04;97389.06;4936792;29;20066;-72
2024/01/06 10:19:46;;;;;;;19.35;16.92;;;;;;;6.05;86.64;97395.56;4938358;29;20035;-72
2024/01/06 10:22:11;;;;;;;17.85;15.10;;;;;;;5.95;86.55;97398.03;4935403;29;20039;-74
2024/01/06 10:24:37;;;;;;;21.42;16.90;;;;;;;5.94;86.62;97399.06;4960964;28;20523;-72
2024/01/06 10:27:03;;;;;;;19.00;14.85;;;;;;;5.93;86.47;97392.06;4938898;29;20031;-73
2024/01/06 10:29:28;;;;;;;21.20;17.70;;;;;;;6.00;86.11;97404.28;4930810;29;20079;-72
2024/01/06 10:31:54;;;;;;;16.90;15.00;;;;;;;5.86;86.08;97394.09;4959576;28;20456;-72
2024/01/06 10:34:20;;;;;;;16.52;14.77;;;;;;;5.93;86.21;97400.91;4950037;28;20024;-72
2024/01/06 10:36:46;;;;;;;22.73;18.67;;;;;;;5.86;86.06;97391.41;4938729;29;20035;-72
2024/01/06 10:39:15;;;;;;;21.30;16.88;;;;;;;6.04;86.22;97409.97;4948912;29;20031;-72
2024/01/06 10:41:42;;;;;;;20.90;17.80;;;;;;;6.01;85.76;97397.06;4954705;29;20046;-73
2024/01/06 10:44:08;;;;;;;21.80;19.42;;;;;;;6.04;85.42;97402.78;4932675;29;20035;-73
2024/01/06 10:46:34;;;;;;;23.83;19.30;;;;;;;6.07;85.86;97404.16;4919588;29;20031;-73
2024/01/06 10:49:00;;;;;;;21.75;17.23;;;;;;;6.11;85.59;97394.63;4936419;29;20034;-73
2024/01/06 10:51:27;;;;;;;18.77;16.73;;;;;;;6.28;85.88;97410.75;4926026;29;20455;-72
2024/01/06 10:53:53;;;;;;;51.75;34.72;;;;;;;6.30;84.94;97401.44;4924993;29;20132;-73
2024/01/06 10:56:19;;;;;;;25.48;20.00;;;;;;;6.30;85.11;97404.13;4922202;29;20079;-72
2024/01/06 10:58:50;;;;;;;21.60;17.40;;;;;;;6.30;84.87;97392.59;4930317;28;20166;-72
2024/01/06 11:01:21;;;;;;;24.15;19.13;;;;;;;6.42;84.17;97396.84;4939937;29;20126;-73
2024/01/06 11:03:49;;;;;;;20.52;16.00;;;;;;;6.46;85.25;97407.91;4938000;29;20039;-72
2024/01/06 11:06:17;;;;;;;22.48;15.48;;;;;;;6.45;84.11;97392.91;4936393;29;20399;-73
2024/01/06 11:08:51;;;;;;;21.45;15.40;;;;;;;6.56;83.17;97408.91;4948108;29;20035;-72
2024/01/06 11:11:20;;;;;;;23.38;17.60;;;;;;;6.52;84.03;97397.06;4914775;29;20033;-72
2024/01/06 11:13:47;;;;;;;13.15;11.45;;;;;;;6.51;83.48;97395.44;4919148;29;20027;-72
2024/01/06 11:16:33;;;;;;;16.23;11.82;;;;;;;6.54;83.25;97413.69;4938436;29;20459;-73